createdAt,value
2023-05-11T00:00:04.374Z,68
2023-05-11T00:20:03.649Z,69
2023-05-11T00:40:03.920Z,69
2023-05-11T01:00:03.241Z,70
2023-05-11T01:20:03.867Z,70
2023-05-11T01:40:03.337Z,70
2023-05-11T02:00:03.601Z,71
2023-05-11T02:20:03.221Z,72
2023-05-11T02:40:03.806Z,73
2023-05-11T03:00:03.160Z,73
2023-05-11T03:20:03.792Z,72
2023-05-11T03:40:03.122Z,73
2023-05-11T04:00:03.341Z,72
2023-05-11T04:20:03.825Z,71
2023-05-11T04:40:03.154Z,70
2023-05-11T05:00:03.460Z,68
2023-05-11T05:20:03.707Z,65
2023-05-11T05:40:03.986Z,62
2023-05-11T06:00:03.405Z,59
2023-05-11T06:20:03.792Z,56
2023-05-11T06:40:03.053Z,52
2023-05-11T07:00:03.557Z,47
2023-05-11T07:20:04.025Z,43
2023-05-11T07:40:03.296Z,40
2023-05-11T08:00:03.973Z,37
2023-05-11T08:20:03.714Z,35
2023-05-11T08:40:04.052Z,33
2023-05-11T09:00:03.501Z,32
2023-05-11T09:20:04.076Z,30
2023-05-11T09:40:26.133Z,30
2023-05-11T10:00:04.086Z,30
2023-05-11T10:20:03.680Z,30
2023-05-11T10:40:04.121Z,29
2023-05-11T11:00:03.417Z,32
2023-05-11T11:20:03.792Z,34
2023-05-11T11:40:15.794Z,33
2023-05-11T12:00:03.999Z,34
2023-05-11T12:20:03.573Z,32
2023-05-11T12:40:03.884Z,30
2023-05-11T13:00:03.147Z,29
2023-05-11T13:20:03.413Z,28
2023-05-11T13:40:03.730Z,28
2023-05-11T14:00:04.038Z,28
2023-05-11T14:20:03.727Z,28
2023-05-11T14:40:04.296Z,28
2023-05-11T15:00:03.854Z,28
2023-05-11T15:20:03.172Z,29
2023-05-11T15:40:03.618Z,30
2023-05-11T16:00:03.980Z,30
2023-05-11T16:20:03.847Z,34
2023-05-11T16:40:03.259Z,35
2023-05-11T17:00:03.601Z,35
2023-05-11T17:20:03.983Z,35
2023-05-11T17:40:03.563Z,35
2023-05-11T18:00:03.979Z,36
2023-05-11T18:20:03.249Z,37
2023-05-11T18:40:03.711Z,38
2023-05-11T19:00:04.083Z,40
2023-05-11T19:20:03.461Z,42
2023-05-11T19:40:45.752Z,43
2023-05-11T20:00:03.547Z,45
2023-05-11T20:20:03.977Z,46
2023-05-11T20:40:03.609Z,47
2023-05-11T21:00:05.197Z,48
2023-05-11T21:20:04.004Z,49
2023-05-11T21:40:03.734Z,50
2023-05-11T22:00:03.977Z,51
2023-05-11T22:20:03.430Z,51
2023-05-11T22:40:03.910Z,50
2023-05-11T23:00:03.175Z,50
2023-05-11T23:20:03.532Z,50
2023-05-11T23:40:03.115Z,51
